sensor_id;sensor_type;location;lat;lon;timestamp;P1;durP1;ratioP1;P2;durP2;ratioP2
20161;SDS011;51382;53.180;15.414;2023-09-19T00:03:43;10.80;;;3.00;;
20161;SDS011;51382;53.180;15.414;2023-09-19T00:18:55;9.70;;;2.90;;
20161;SDS011;51382;53.180;15.414;2023-09-19T00:34:06;9.10;;;2.50;;
20161;SDS011;51382;53.180;15.414;2023-09-19T00:49:20;8.00;;;2.70;;
20161;SDS011;51382;53.180;15.414;2023-09-19T01:04:32;9.30;;;3.20;;
20161;SDS011;51382;53.180;15.414;2023-09-19T01:35:22;6.00;;;2.30;;
20161;SDS011;51382;53.180;15.414;2023-09-19T01:50:38;12.30;;;3.00;;
20161;SDS011;51382;53.180;15.414;2023-09-19T02:05:53;6.70;;;3.00;;
20161;SDS011;51382;53.180;15.414;2023-09-19T02:21:04;6.80;;;2.60;;
20161;SDS011;51382;53.180;15.414;2023-09-19T02:36:16;9.30;;;3.30;;
20161;SDS011;51382;53.180;15.414;2023-09-19T02:51:28;12.50;;;3.30;;
20161;SDS011;51382;53.180;15.414;2023-09-19T03:06:40;10.00;;;2.90;;
20161;SDS011;51382;53.180;15.414;2023-09-19T03:21:52;8.50;;;3.10;;
20161;SDS011;51382;53.180;15.414;2023-09-19T03:37:04;10.30;;;3.00;;
20161;SDS011;51382;53.180;15.414;2023-09-19T03:52:16;11.90;;;3.20;;
20161;SDS011;51382;53.180;15.414;2023-09-19T04:07:28;13.10;;;3.10;;
20161;SDS011;51382;53.180;15.414;2023-09-19T04:22:40;8.80;;;3.10;;
20161;SDS011;51382;53.180;15.414;2023-09-19T04:37:51;11.10;;;3.10;;
20161;SDS011;51382;53.180;15.414;2023-09-19T04:53:04;13.70;;;3.40;;
20161;SDS011;51382;53.180;15.414;2023-09-19T05:08:17;11.90;;;2.90;;
20161;SDS011;51382;53.180;15.414;2023-09-19T05:23:28;16.00;;;4.00;;
20161;SDS011;51382;53.180;15.414;2023-09-19T05:38:39;12.90;;;3.10;;
20161;SDS011;51382;53.180;15.414;2023-09-19T05:53:52;9.30;;;3.20;;
20161;SDS011;51382;53.180;15.414;2023-09-19T06:09:04;12.80;;;3.30;;
20161;SDS011;51382;53.180;15.414;2023-09-19T06:24:18;20.30;;;3.60;;
20161;SDS011;51382;53.180;15.414;2023-09-19T06:39:32;10.30;;;2.90;;
20161;SDS011;51382;53.180;15.414;2023-09-19T06:54:38;9.50;;;3.30;;
20161;SDS011;51382;53.180;15.414;2023-09-19T07:09:49;7.70;;;2.60;;
20161;SDS011;51382;53.180;15.414;2023-09-19T07:25:04;6.60;;;2.10;;
20161;SDS011;51382;53.180;15.414;2023-09-19T07:40:12;19.70;;;4.00;;
20161;SDS011;51382;53.180;15.414;2023-09-19T07:55:24;17.70;;;3.40;;
20161;SDS011;51382;53.180;15.414;2023-09-19T08:10:31;18.00;;;3.30;;
20161;SDS011;51382;53.180;15.414;2023-09-19T08:25:40;16.50;;;3.40;;
20161;SDS011;51382;53.180;15.414;2023-09-19T08:40:46;13.80;;;3.20;;
20161;SDS011;51382;53.180;15.414;2023-09-19T08:55:54;8.50;;;2.30;;
20161;SDS011;51382;53.180;15.414;2023-09-19T09:11:02;11.30;;;2.70;;
20161;SDS011;51382;53.180;15.414;2023-09-19T09:26:18;12.80;;;2.90;;
20161;SDS011;51382;53.180;15.414;2023-09-19T09:41:39;20.60;;;3.70;;
20161;SDS011;51382;53.180;15.414;2023-09-19T09:56:59;16.10;;;3.00;;
20161;SDS011;51382;53.180;15.414;2023-09-19T10:12:08;13.30;;;2.80;;
20161;SDS011;51382;53.180;15.414;2023-09-19T10:27:17;12.90;;;3.10;;
20161;SDS011;51382;53.180;15.414;2023-09-19T10:42:24;12.70;;;3.60;;
20161;SDS011;51382;53.180;15.414;2023-09-19T10:57:39;13.00;;;3.40;;
20161;SDS011;51382;53.180;15.414;2023-09-19T11:12:58;16.10;;;3.30;;
20161;SDS011;51382;53.180;15.414;2023-09-19T11:28:38;14.50;;;3.60;;
20161;SDS011;51382;53.180;15.414;2023-09-19T11:43:51;17.70;;;3.80;;
20161;SDS011;51382;53.180;15.414;2023-09-19T11:58:59;19.90;;;3.90;;
20161;SDS011;51382;53.180;15.414;2023-09-19T12:14:12;14.10;;;3.50;;
20161;SDS011;51382;53.180;15.414;2023-09-19T12:29:27;26.60;;;4.60;;
20161;SDS011;51382;53.180;15.414;2023-09-19T12:44:36;16.80;;;3.70;;
20161;SDS011;51382;53.180;15.414;2023-09-19T12:59:48;25.30;;;4.40;;
20161;SDS011;51382;53.180;15.414;2023-09-19T13:15:10;15.30;;;3.80;;
20161;SDS011;51382;53.180;15.414;2023-09-19T13:30:25;16.10;;;3.80;;
20161;SDS011;51382;53.180;15.414;2023-09-19T13:45:36;23.80;;;4.40;;
20161;SDS011;51382;53.180;15.414;2023-09-19T14:00:47;15.80;;;3.90;;
20161;SDS011;51382;53.180;15.414;2023-09-19T14:16:02;14.60;;;3.40;;
20161;SDS011;51382;53.180;15.414;2023-09-19T14:31:14;18.30;;;3.50;;
20161;SDS011;51382;53.180;15.414;2023-09-19T14:46:26;39.90;;;5.40;;
20161;SDS011;51382;53.180;15.414;2023-09-19T15:01:38;24.30;;;4.10;;
20161;SDS011;51382;53.180;15.414;2023-09-19T15:16:50;129.40;;;15.70;;
20161;SDS011;51382;53.180;15.414;2023-09-19T15:32:02;17.90;;;4.20;;
20161;SDS011;51382;53.180;15.414;2023-09-19T15:47:13;14.90;;;3.50;;
20161;SDS011;51382;53.180;15.414;2023-09-19T16:02:29;23.60;;;8.50;;
20161;SDS011;51382;53.180;15.414;2023-09-19T16:17:40;46.50;;;6.70;;
20161;SDS011;51382;53.180;15.414;2023-09-19T16:32:52;41.70;;;6.90;;
20161;SDS011;51382;53.180;15.414;2023-09-19T16:48:04;46.30;;;7.50;;
20161;SDS011;51382;53.180;15.414;2023-09-19T17:03:16;48.30;;;6.40;;
20161;SDS011;51382;53.180;15.414;2023-09-19T17:18:22;45.90;;;6.30;;
20161;SDS011;51382;53.180;15.414;2023-09-19T17:33:34;49.90;;;6.40;;
20161;SDS011;51382;53.180;15.414;2023-09-19T17:48:47;44.70;;;6.00;;
20161;SDS011;51382;53.180;15.414;2023-09-19T18:03:58;60.70;;;8.90;;
20161;SDS011;51382;53.180;15.414;2023-09-19T18:19:11;50.70;;;7.10;;
20161;SDS011;51382;53.180;15.414;2023-09-19T18:34:23;47.40;;;7.20;;
20161;SDS011;51382;53.180;15.414;2023-09-19T18:49:35;37.80;;;6.50;;
20161;SDS011;51382;53.180;15.414;2023-09-19T19:04:47;57.40;;;10.70;;
20161;SDS011;51382;53.180;15.414;2023-09-19T19:19:58;49.20;;;9.40;;
20161;SDS011;51382;53.180;15.414;2023-09-19T19:35:10;47.20;;;6.70;;
20161;SDS011;51382;53.180;15.414;2023-09-19T19:50:21;53.70;;;7.60;;
20161;SDS011;51382;53.180;15.414;2023-09-19T20:05:38;54.80;;;9.20;;
20161;SDS011;51382;53.180;15.414;2023-09-19T20:20:51;44.00;;;7.30;;
20161;SDS011;51382;53.180;15.414;2023-09-19T20:36:03;48.10;;;10.40;;
20161;SDS011;51382;53.180;15.414;2023-09-19T20:51:15;66.80;;;10.60;;
20161;SDS011;51382;53.180;15.414;2023-09-19T21:06:35;61.80;;;11.40;;
20161;SDS011;51382;53.180;15.414;2023-09-19T21:21:46;51.90;;;9.20;;
20161;SDS011;51382;53.180;15.414;2023-09-19T21:36:59;54.50;;;9.70;;
20161;SDS011;51382;53.180;15.414;2023-09-19T21:52:10;64.00;;;11.80;;
20161;SDS011;51382;53.180;15.414;2023-09-19T22:07:22;52.80;;;8.20;;
20161;SDS011;51382;53.180;15.414;2023-09-19T22:22:35;50.20;;;8.50;;
20161;SDS011;51382;53.180;15.414;2023-09-19T22:37:47;48.70;;;9.00;;
20161;SDS011;51382;53.180;15.414;2023-09-19T22:52:59;38.80;;;6.90;;
20161;SDS011;51382;53.180;15.414;2023-09-19T23:08:08;53.70;;;8.80;;
20161;SDS011;51382;53.180;15.414;2023-09-19T23:23:20;48.70;;;7.20;;
20161;SDS011;51382;53.180;15.414;2023-09-19T23:38:32;45.00;;;7.30;;
20161;SDS011;51382;53.180;15.414;2023-09-19T23:53:43;44.40;;;6.90;;
